createdAt,value
2019-02-16T00:00:53.643Z,45.40
2019-02-16T00:03:22.229Z,45.50
2019-02-16T00:05:50.822Z,45.50
2019-02-16T00:08:19.453Z,45.50
2019-02-16T00:10:48.368Z,45.70
2019-02-16T00:13:17.199Z,45.70
2019-02-16T00:15:45.813Z,45.60
2019-02-16T00:18:14.888Z,45.70
2019-02-16T00:20:43.898Z,45.80
2019-02-16T00:23:12.762Z,45.70
2019-02-16T00:25:41.595Z,45.90
2019-02-16T00:28:16.588Z,45.80
2019-02-16T00:30:40.986Z,45.90
2019-02-16T00:33:09.551Z,45.80
2019-02-16T00:35:38.156Z,45.80
2019-02-16T00:38:06.997Z,45.80
2019-02-16T00:40:35.560Z,45.90
2019-02-16T00:43:11.695Z,45.80
2019-02-16T00:45:40.276Z,45.80
2019-02-16T00:48:16.513Z,45.90
2019-02-16T00:50:50.948Z,46.00
2019-02-16T00:53:19.836Z,46.10
2019-02-16T00:55:48.439Z,46.00
2019-02-16T00:58:17.250Z,46.00
2019-02-16T01:00:52.266Z,46.00
2019-02-16T01:03:20.840Z,46.00
2019-02-16T01:05:49.686Z,46.00
2019-02-16T01:08:23.017Z,46.10
2019-02-16T01:11:00.141Z,46.10
2019-02-16T01:13:28.965Z,46.10
2019-02-16T01:15:57.555Z,46.00
2019-02-16T01:18:35.436Z,46.10
2019-02-16T01:21:04.649Z,46.20
2019-02-16T01:23:37.416Z,46.20
2019-02-16T01:26:09.060Z,46.20
2019-02-16T01:28:40.750Z,46.30
2019-02-16T01:31:09.572Z,46.30
2019-02-16T01:33:38.564Z,46.30
2019-02-16T01:36:07.221Z,46.20
2019-02-16T01:38:35.976Z,46.30
2019-02-16T01:41:04.667Z,46.30
2019-02-16T01:43:33.374Z,46.40
2019-02-16T01:46:02.450Z,46.40
2019-02-16T01:48:31.162Z,46.40
2019-02-16T01:51:00.116Z,46.40
2019-02-16T01:53:28.770Z,46.40
2019-02-16T01:56:01.469Z,46.60
2019-02-16T01:58:30.228Z,46.60
2019-02-16T02:00:59.022Z,46.50
2019-02-16T02:03:27.860Z,46.50
2019-02-16T02:06:03.413Z,46.50
2019-02-16T02:08:39.771Z,46.60
2019-02-16T02:11:09.032Z,46.60
2019-02-16T02:13:37.696Z,46.60
2019-02-16T02:16:06.637Z,46.60
2019-02-16T02:18:45.918Z,46.60
2019-02-16T02:21:14.612Z,46.70
2019-02-16T02:23:43.333Z,46.70
2019-02-16T02:26:12.020Z,46.80
2019-02-16T02:28:40.936Z,46.70
2019-02-16T02:31:09.628Z,46.70
2019-02-16T02:33:38.641Z,46.90
2019-02-16T02:36:09.443Z,47.00
2019-02-16T02:38:38.196Z,47.10
2019-02-16T02:41:06.886Z,47.10
2019-02-16T02:43:35.541Z,47.10
2019-02-16T02:46:04.207Z,47.10
2019-02-16T02:48:32.912Z,47.00
2019-02-16T02:51:01.623Z,46.90
2019-02-16T02:53:31.538Z,46.80
2019-02-16T02:56:00.593Z,46.90
2019-02-16T02:58:29.320Z,46.80
2019-02-16T03:00:58.025Z,46.90
2019-02-16T03:03:27.013Z,46.90
2019-02-16T03:05:55.712Z,46.90
2019-02-16T03:08:24.395Z,46.90
2019-02-16T03:10:53.109Z,46.90
2019-02-16T03:13:22.114Z,47.00
2019-02-16T03:15:50.805Z,47.00
2019-02-16T03:18:19.534Z,46.90
2019-02-16T03:20:48.317Z,47.00
2019-02-16T03:23:21.322Z,46.90
2019-02-16T03:26:35.118Z,46.90
2019-02-16T03:29:23.835Z,46.90
2019-02-16T03:32:26.338Z,46.90
2019-02-16T03:35:08.913Z,47.00
2019-02-16T03:38:21.931Z,46.90
2019-02-16T03:40:50.642Z,47.10
2019-02-16T03:43:19.384Z,47.00
2019-02-16T03:45:48.390Z,47.00
2019-02-16T03:48:17.108Z,47.20
2019-02-16T03:50:46.109Z,47.30
2019-02-16T03:53:14.793Z,47.30
2019-02-16T03:55:43.465Z,47.30
2019-02-16T03:58:12.166Z,47.20
2019-02-16T04:00:40.931Z,47.10
2019-02-16T04:03:09.870Z,47.10
2019-02-16T04:05:38.640Z,47.20
2019-02-16T04:08:07.614Z,47.20
2019-02-16T04:10:36.343Z,47.30
2019-02-16T04:13:05.048Z,47.40
2019-02-16T04:15:34.096Z,47.40
2019-02-16T04:18:02.797Z,47.40
2019-02-16T04:20:31.558Z,47.40
2019-02-16T04:23:00.494Z,47.40
2019-02-16T04:25:29.541Z,47.40
2019-02-16T04:27:58.239Z,47.50
2019-02-16T04:30:26.930Z,47.60
2019-02-16T04:32:55.918Z,47.60
2019-02-16T04:35:24.617Z,47.70
2019-02-16T04:37:53.318Z,47.60
2019-02-16T04:40:22.051Z,47.70
2019-02-16T04:42:50.744Z,47.70
2019-02-16T04:45:19.443Z,47.80
2019-02-16T04:47:48.317Z,47.80
2019-02-16T04:50:17.069Z,47.80
2019-02-16T04:52:45.796Z,47.80
2019-02-16T04:55:14.522Z,47.80
2019-02-16T04:57:43.284Z,47.80
2019-02-16T05:00:11.989Z,47.90
2019-02-16T05:02:40.677Z,47.90
2019-02-16T05:05:09.399Z,47.80
2019-02-16T05:07:38.119Z,47.90
2019-02-16T05:10:07.128Z,47.90
2019-02-16T05:12:35.900Z,48.00
2019-02-16T05:15:04.853Z,48.00
2019-02-16T05:17:33.618Z,48.10
2019-02-16T05:20:02.329Z,48.20
2019-02-16T05:22:31.333Z,48.10
2019-02-16T05:25:00.480Z,48.00
2019-02-16T05:27:29.302Z,48.20
2019-02-16T05:29:58.010Z,48.10
2019-02-16T05:32:26.757Z,48.20
2019-02-16T05:34:55.434Z,48.30
2019-02-16T05:37:24.116Z,48.30
2019-02-16T05:39:52.816Z,48.30
2019-02-16T05:42:22.045Z,48.20
2019-02-16T05:44:51.316Z,48.20
2019-02-16T05:47:20.294Z,48.30
2019-02-16T05:49:49.278Z,48.30
2019-02-16T05:52:18.021Z,48.30
2019-02-16T05:54:46.745Z,48.40
2019-02-16T05:57:15.415Z,48.40
2019-02-16T05:59:44.122Z,48.50
2019-02-16T06:02:12.894Z,48.40
2019-02-16T06:04:41.861Z,48.40
2019-02-16T06:07:10.571Z,48.50
2019-02-16T06:09:39.237Z,48.40
2019-02-16T06:12:08.210Z,48.40
2019-02-16T06:14:37.196Z,48.40
2019-02-16T06:17:05.898Z,48.40
2019-02-16T06:19:34.883Z,48.40
2019-02-16T06:22:03.610Z,48.30
2019-02-16T06:24:32.344Z,48.40
2019-02-16T06:27:01.269Z,48.30
2019-02-16T06:29:29.954Z,48.40
2019-02-16T06:31:58.633Z,48.50
2019-02-16T06:34:27.375Z,48.60
2019-02-16T06:36:56.378Z,48.60
2019-02-16T06:39:25.127Z,48.60
2019-02-16T06:41:53.850Z,48.40
2019-02-16T06:44:22.510Z,48.50
2019-02-16T06:46:51.449Z,48.60
2019-02-16T06:49:20.421Z,48.70
2019-02-16T06:51:49.101Z,48.70
2019-02-16T06:54:17.821Z,48.70
2019-02-16T06:57:02.181Z,48.60
2019-02-16T06:59:33.076Z,48.60
2019-02-16T07:02:01.858Z,48.70
2019-02-16T07:04:30.527Z,48.70
2019-02-16T07:06:59.236Z,48.60
2019-02-16T07:09:27.943Z,48.60
2019-02-16T07:11:56.969Z,48.60
2019-02-16T07:14:25.752Z,48.60
2019-02-16T07:17:04.128Z,48.60
2019-02-16T07:19:39.744Z,48.60
2019-02-16T07:22:08.488Z,48.60
2019-02-16T07:24:37.461Z,48.60
2019-02-16T07:27:07.555Z,48.50
2019-02-16T07:29:36.673Z,48.50
2019-02-16T07:32:05.408Z,48.60
2019-02-16T07:34:34.117Z,48.60
2019-02-16T07:37:02.937Z,48.40
2019-02-16T07:39:31.691Z,48.30
2019-02-16T07:42:00.393Z,48.40
2019-02-16T07:44:48.285Z,48.50
2019-02-16T07:47:42.306Z,49.10
2019-02-16T07:50:22.842Z,48.50
2019-02-16T07:53:19.381Z,48.40
2019-02-16T07:56:05.398Z,48.50
2019-02-16T07:59:05.405Z,48.50
2019-02-16T08:01:56.838Z,48.30
2019-02-16T08:04:33.291Z,48.50
2019-02-16T08:07:22.030Z,48.20
2019-02-16T08:10:06.688Z,48.20
2019-02-16T08:12:44.513Z,48.40
2019-02-16T08:15:35.338Z,48.60
2019-02-16T08:18:32.169Z,48.70
2019-02-16T08:21:17.862Z,48.70
2019-02-16T08:24:08.650Z,48.90
2019-02-16T08:26:59.294Z,48.90
2019-02-16T08:29:56.368Z,48.80
2019-02-16T08:32:42.636Z,48.80
2019-02-16T08:35:19.368Z,48.60
2019-02-16T08:38:08.961Z,48.60
2019-02-16T08:41:02.935Z,48.40
2019-02-16T08:43:53.315Z,48.30
2019-02-16T08:46:33.483Z,47.70
2019-02-16T08:49:26.569Z,47.50
2019-02-16T08:52:16.888Z,47.00
2019-02-16T08:55:01.493Z,46.70
2019-02-16T08:57:42.796Z,46.40
2019-02-16T09:00:39.805Z,46.00
2019-02-16T09:03:42.607Z,45.70
2019-02-16T09:06:20.694Z,45.50
2019-02-16T09:09:01.909Z,45.20
2019-02-16T09:11:41.642Z,44.80
2019-02-16T09:14:25.662Z,44.40
2019-02-16T09:17:08.437Z,44.10
2019-02-16T09:19:54.877Z,43.80
2019-02-16T09:22:28.485Z,43.40
2019-02-16T09:25:15.380Z,43.00
2019-02-16T09:28:03.025Z,42.80
2019-02-16T09:30:49.602Z,42.40
2019-02-16T09:33:28.628Z,41.90
2019-02-16T09:36:08.596Z,41.70
2019-02-16T09:39:05.721Z,41.40
2019-02-16T09:41:40.288Z,41.20
2019-02-16T09:44:19.944Z,40.80
2019-02-16T09:46:57.013Z,40.60
2019-02-16T09:49:53.874Z,40.50
2019-02-16T09:52:50.755Z,40.40
2019-02-16T09:55:38.503Z,40.40
2019-02-16T09:58:19.703Z,40.20
2019-02-16T10:01:10.855Z,39.90
2019-02-16T10:04:01.381Z,39.80
2019-02-16T10:06:51.942Z,39.60
2019-02-16T10:09:30.177Z,39.50
2019-02-16T10:12:21.236Z,39.20
2019-02-16T10:15:17.018Z,39.00
2019-02-16T10:18:14.239Z,38.80
2019-02-16T10:20:54.085Z,38.50
2019-02-16T10:24:00.119Z,38.10
2019-02-16T10:26:43.469Z,37.80
2019-02-16T10:29:22.800Z,38.20
2019-02-16T10:32:01.410Z,37.20
2019-02-16T10:34:54.825Z,37.10
2019-02-16T10:37:37.275Z,36.80
2019-02-16T10:40:34.052Z,36.60
2019-02-16T10:43:26.322Z,36.30
2019-02-16T10:46:26.391Z,35.90
2019-02-16T10:49:11.367Z,35.80
2019-02-16T10:52:05.290Z,35.80
2019-02-16T10:54:41.359Z,35.60
2019-02-16T10:57:27.686Z,35.20
2019-02-16T11:00:27.513Z,35.10
2019-02-16T11:03:04.803Z,35.10
2019-02-16T11:05:39.194Z,35.00
2019-02-16T11:08:21.886Z,34.70
2019-02-16T11:11:13.057Z,34.70
2019-02-16T11:14:01.307Z,34.60
2019-02-16T11:16:56.598Z,34.40
2019-02-16T11:19:42.909Z,34.20
2019-02-16T11:22:19.754Z,33.80
2019-02-16T11:25:05.905Z,33.30
2019-02-16T11:27:52.745Z,32.90
2019-02-16T11:30:38.966Z,32.60
2019-02-16T11:33:13.524Z,31.90
2019-02-16T11:35:57.651Z,31.90
2019-02-16T11:38:36.861Z,31.00
2019-02-16T11:41:18.621Z,29.50
2019-02-16T11:44:13.594Z,28.20
2019-02-16T11:46:57.805Z,27.20
2019-02-16T11:49:32.226Z,26.20
2019-02-16T11:52:26.833Z,25.50
2019-02-16T11:55:10.358Z,25.00
2019-02-16T11:57:56.934Z,24.60
2019-02-16T12:00:45.190Z,24.90
2019-02-16T12:03:19.835Z,24.00
2019-02-16T12:06:01.173Z,23.50
2019-02-16T12:08:36.794Z,22.90
2019-02-16T12:11:39.554Z,22.70
2019-02-16T12:14:19.341Z,22.40
2019-02-16T12:17:10.615Z,22.20
2019-02-16T12:20:03.469Z,21.70
2019-02-16T12:22:42.114Z,21.50
2019-02-16T12:25:26.022Z,21.30
2019-02-16T12:28:29.062Z,21.00
2019-02-16T12:31:20.634Z,20.10
2019-02-16T12:34:11.145Z,17.80
2019-02-16T12:36:55.797Z,19.20
2019-02-16T12:39:34.197Z,21.10
2019-02-16T12:42:19.431Z,22.60
2019-02-16T12:44:54.760Z,23.60
2019-02-16T12:47:40.921Z,24.50
2019-02-16T12:50:20.268Z,25.00
2019-02-16T12:53:04.007Z,25.40
2019-02-16T12:55:47.389Z,25.70
2019-02-16T12:58:37.841Z,26.10
2019-02-16T13:01:31.747Z,26.40
2019-02-16T13:04:18.337Z,26.70
2019-02-16T13:07:05.047Z,26.90
2019-02-16T13:09:59.213Z,27.00
2019-02-16T13:12:49.489Z,27.20
2019-02-16T13:15:40.981Z,27.30
2019-02-16T13:18:25.585Z,27.30
2019-02-16T13:21:10.183Z,27.40
2019-02-16T13:24:02.738Z,27.40
2019-02-16T13:26:50.581Z,27.50
2019-02-16T13:29:29.594Z,27.50
2019-02-16T13:32:09.569Z,27.70
2019-02-16T13:34:53.634Z,27.70
2019-02-16T13:37:30.919Z,27.70
2019-02-16T13:40:27.462Z,27.80
2019-02-16T13:43:13.585Z,27.90
2019-02-16T13:46:00.415Z,27.90
2019-02-16T13:48:34.259Z,27.90
2019-02-16T13:51:11.548Z,28.20
2019-02-16T13:53:58.581Z,28.00
2019-02-16T13:56:57.841Z,28.30
2019-02-16T13:59:51.645Z,28.40
2019-02-16T14:02:42.607Z,28.50
2019-02-16T14:05:41.480Z,29.30
2019-02-16T14:08:35.725Z,28.90
2019-02-16T14:11:23.194Z,29.20
2019-02-16T14:14:19.785Z,29.30
2019-02-16T14:17:32.125Z,29.50
2019-02-16T14:20:00.822Z,29.60
2019-02-16T14:22:30.053Z,29.90
2019-02-16T14:25:00.950Z,30.20
2019-02-16T14:27:36.705Z,30.50
2019-02-16T14:30:05.906Z,30.90
2019-02-16T14:32:34.611Z,31.10
2019-02-16T14:35:03.324Z,31.40
2019-02-16T14:37:54.373Z,31.60
2019-02-16T14:40:29.745Z,31.90
2019-02-16T14:42:58.479Z,31.90
2019-02-16T14:45:27.172Z,32.00
2019-02-16T14:47:55.855Z,32.20
2019-02-16T14:50:24.777Z,32.40
2019-02-16T14:52:53.630Z,32.60
2019-02-16T14:55:22.338Z,32.80
2019-02-16T14:57:51.047Z,33.20
2019-02-16T15:00:20.377Z,33.10
2019-02-16T15:02:49.663Z,33.30
2019-02-16T15:05:18.429Z,33.60
2019-02-16T15:07:47.150Z,33.60
2019-02-16T15:10:16.118Z,33.70
2019-02-16T15:12:44.882Z,33.60
2019-02-16T15:15:13.578Z,33.60
2019-02-16T15:17:42.283Z,33.50
2019-02-16T15:20:14.260Z,33.60
2019-02-16T15:22:42.970Z,34.10
2019-02-16T15:25:11.811Z,34.30
2019-02-16T15:27:40.811Z,34.50
2019-02-16T15:30:14.562Z,34.80
2019-02-16T15:32:43.954Z,34.90
2019-02-16T15:35:12.727Z,34.80
2019-02-16T15:37:41.708Z,34.90
2019-02-16T15:40:10.457Z,35.10
2019-02-16T15:42:39.430Z,35.00
2019-02-16T15:45:10.890Z,35.20
2019-02-16T15:47:39.857Z,35.50
2019-02-16T15:50:09.929Z,35.60
2019-02-16T15:52:38.923Z,35.90
2019-02-16T15:55:09.018Z,36.00
2019-02-16T15:57:38.011Z,36.20
2019-02-16T16:00:09.203Z,36.50
2019-02-16T16:02:38.222Z,36.70
2019-02-16T16:05:06.993Z,37.00
2019-02-16T16:07:35.844Z,37.20
2019-02-16T16:10:41.635Z,37.20
2019-02-16T16:13:28.014Z,37.30
2019-02-16T16:16:05.710Z,37.40
2019-02-16T16:19:11.434Z,37.50
2019-02-16T16:21:53.613Z,37.50
2019-02-16T16:24:50.757Z,37.60
2019-02-16T16:27:44.811Z,37.70
2019-02-16T16:30:30.933Z,37.70
2019-02-16T16:33:30.885Z,37.90
2019-02-16T16:36:36.964Z,37.80
2019-02-16T16:39:28.037Z,37.90
2019-02-16T16:42:14.642Z,38.00
2019-02-16T16:44:53.084Z,38.10
2019-02-16T16:47:42.793Z,38.10
2019-02-16T16:50:24.769Z,38.30
2019-02-16T16:53:02.292Z,38.20
2019-02-16T16:56:02.206Z,38.10
2019-02-16T16:58:39.534Z,38.10
2019-02-16T17:01:42.305Z,38.20
2019-02-16T17:04:47.987Z,38.20
2019-02-16T17:07:24.907Z,38.20
2019-02-16T17:10:12.838Z,38.20
2019-02-16T17:12:51.741Z,38.30
2019-02-16T17:15:42.229Z,38.30
2019-02-16T17:18:20.526Z,38.40
2019-02-16T17:21:06.770Z,38.40
2019-02-16T17:23:53.102Z,38.30
2019-02-16T17:26:42.059Z,38.40
2019-02-16T17:29:29.841Z,38.40
2019-02-16T17:32:24.175Z,38.40
2019-02-16T17:35:09.566Z,38.50
2019-02-16T17:37:57.359Z,38.50
2019-02-16T17:40:48.163Z,38.50
2019-02-16T17:43:23.323Z,38.60
2019-02-16T17:46:09.291Z,38.50
2019-02-16T17:48:56.102Z,38.60
2019-02-16T17:51:47.084Z,38.60
2019-02-16T17:54:28.817Z,38.60
2019-02-16T17:57:15.425Z,38.50
2019-02-16T18:00:06.265Z,38.50
2019-02-16T18:02:49.194Z,38.80
2019-02-16T18:05:37.190Z,38.80
2019-02-16T18:08:43.292Z,38.80
2019-02-16T18:11:26.778Z,38.90
2019-02-16T18:14:17.430Z,38.90
2019-02-16T18:17:14.246Z,38.90
2019-02-16T18:20:03.329Z,39.00
2019-02-16T18:22:51.370Z,38.90
2019-02-16T18:25:26.026Z,39.00
2019-02-16T18:28:25.938Z,39.00
2019-02-16T18:31:06.604Z,39.00
2019-02-16T18:33:53.124Z,39.00
2019-02-16T18:36:35.823Z,39.20
2019-02-16T18:39:14.212Z,39.10
2019-02-16T18:41:56.957Z,39.00
2019-02-16T18:44:50.541Z,39.00
2019-02-16T18:47:44.704Z,39.00
2019-02-16T18:50:35.293Z,39.30
2019-02-16T18:53:23.298Z,39.80
2019-02-16T18:56:14.102Z,40.10
2019-02-16T18:58:59.349Z,40.40
2019-02-16T19:01:38.920Z,40.70
2019-02-16T19:04:25.429Z,41.00
2019-02-16T19:07:02.705Z,41.10
2019-02-16T19:09:49.013Z,41.30
2019-02-16T19:12:35.319Z,41.40
2019-02-16T19:15:29.196Z,41.60
2019-02-16T19:18:04.126Z,41.70
2019-02-16T19:20:42.457Z,42.50
2019-02-16T19:23:22.557Z,42.00
2019-02-16T19:26:08.797Z,42.10
2019-02-16T19:28:55.288Z,42.30
2019-02-16T19:31:32.197Z,42.30
2019-02-16T19:34:15.417Z,42.50
2019-02-16T19:36:50.449Z,42.60
2019-02-16T19:39:28.557Z,42.60
2019-02-16T19:42:22.134Z,42.70
2019-02-16T19:45:08.938Z,42.70
2019-02-16T19:47:54.130Z,43.00
2019-02-16T19:50:33.158Z,43.00
2019-02-16T19:53:11.954Z,43.00
2019-02-16T19:55:59.730Z,43.10
2019-02-16T19:58:56.693Z,43.20
2019-02-16T20:01:52.987Z,43.20
2019-02-16T20:04:39.221Z,43.30
2019-02-16T20:07:22.888Z,43.30
2019-02-16T20:10:00.569Z,43.40
2019-02-16T20:12:44.914Z,43.40
2019-02-16T20:15:39.026Z,43.50
2019-02-16T20:18:24.250Z,43.50
2019-02-16T20:21:10.883Z,43.60
2019-02-16T20:23:58.495Z,43.70
2019-02-16T20:26:41.485Z,43.70
2019-02-16T20:29:15.434Z,43.80
2019-02-16T20:32:21.409Z,43.90
2019-02-16T20:35:09.161Z,43.80
2019-02-16T20:38:08.738Z,43.90
2019-02-16T20:40:51.746Z,43.90
2019-02-16T20:43:43.702Z,44.00
2019-02-16T20:46:40.202Z,44.10
2019-02-16T20:49:26.534Z,44.00
2019-02-16T20:52:15.116Z,44.10
2019-02-16T20:54:56.287Z,44.10
2019-02-16T20:57:31.621Z,44.20
2019-02-16T21:00:15.968Z,44.30
2019-02-16T21:03:21.683Z,44.30
2019-02-16T21:06:03.085Z,44.30
2019-02-16T21:08:53.941Z,44.40
2019-02-16T21:11:35.853Z,44.40
2019-02-16T21:14:23.561Z,44.50
2019-02-16T21:17:02.901Z,44.40
2019-02-16T21:19:41.549Z,44.50
2019-02-16T21:22:18.414Z,44.50
2019-02-16T21:25:09.739Z,44.60
2019-02-16T21:27:58.038Z,44.60
2019-02-16T21:30:34.435Z,44.60
2019-02-16T21:33:15.584Z,44.70
2019-02-16T21:36:10.734Z,44.70
2019-02-16T21:39:06.351Z,44.60
2019-02-16T21:41:46.089Z,44.80
2019-02-16T21:44:34.101Z,44.80
2019-02-16T21:47:08.805Z,44.90
2019-02-16T21:50:03.295Z,44.90
2019-02-16T21:53:03.788Z,44.90
2019-02-16T21:55:57.862Z,44.90
2019-02-16T21:58:51.477Z,44.90
2019-02-16T22:01:40.440Z,45.00
2019-02-16T22:04:27.179Z,45.00
2019-02-16T22:07:16.352Z,45.10
2019-02-16T22:09:59.843Z,45.10
2019-02-16T22:12:51.796Z,45.20
2019-02-16T22:15:20.743Z,45.20
2019-02-16T22:17:52.630Z,45.10
2019-02-16T22:20:21.427Z,45.20
2019-02-16T22:22:50.383Z,45.20
2019-02-16T22:25:21.325Z,45.10
2019-02-16T22:27:49.855Z,45.20
2019-02-16T22:30:18.817Z,45.30
2019-02-16T22:32:48.023Z,45.30
2019-02-16T22:35:17.018Z,45.30
2019-02-16T22:37:45.705Z,45.30
2019-02-16T22:40:14.376Z,45.40
2019-02-16T22:42:43.102Z,45.40
2019-02-16T22:45:11.881Z,45.30
2019-02-16T22:47:40.830Z,45.40
2019-02-16T22:50:10.204Z,45.40
2019-02-16T22:52:39.147Z,45.50
2019-02-16T22:55:08.070Z,45.60
2019-02-16T22:57:36.942Z,45.60
2019-02-16T23:00:09.601Z,45.60
2019-02-16T23:02:38.309Z,45.60
2019-02-16T23:05:06.982Z,45.70
2019-02-16T23:07:35.674Z,45.70
2019-02-16T23:10:05.081Z,45.70
2019-02-16T23:12:34.274Z,45.70
2019-02-16T23:15:02.997Z,45.70
2019-02-16T23:17:31.699Z,45.70
2019-02-16T23:20:00.382Z,45.60
2019-02-16T23:22:29.091Z,45.70
2019-02-16T23:24:58.076Z,45.80
2019-02-16T23:27:27.042Z,46.00
2019-02-16T23:29:55.801Z,45.90
2019-02-16T23:32:24.463Z,45.90
2019-02-16T23:34:53.410Z,46.00
2019-02-16T23:37:22.429Z,46.00
2019-02-16T23:39:51.493Z,46.10
2019-02-16T23:42:20.198Z,46.00
2019-02-16T23:44:49.167Z,46.10
2019-02-16T23:47:18.246Z,46.10
2019-02-16T23:49:47.269Z,46.20
2019-02-16T23:52:15.998Z,46.10
2019-02-16T23:54:44.970Z,46.10
2019-02-16T23:57:13.707Z,46.20
2019-02-16T23:59:42.397Z,46.20
